sensor_id;sensor_type;location;lat;lon;timestamp;P1;durP1;ratioP1;P2;durP2;ratioP2
36787;SDS011;22738;45.560;9.434;2022-10-17T00:01:55;85.85;;;38.08;;
36787;SDS011;22738;45.560;9.434;2022-10-17T00:08:37;81.07;;;37.92;;
36787;SDS011;22738;45.560;9.434;2022-10-17T00:15:20;81.35;;;37.75;;
36787;SDS011;22738;45.560;9.434;2022-10-17T00:22:01;84.18;;;36.70;;
36787;SDS011;22738;45.560;9.434;2022-10-17T00:28:46;79.43;;;37.45;;
36787;SDS011;22738;45.560;9.434;2022-10-17T00:35:28;84.85;;;40.28;;
36787;SDS011;22738;45.560;9.434;2022-10-17T00:42:11;88.35;;;39.17;;
36787;SDS011;22738;45.560;9.434;2022-10-17T00:48:53;91.18;;;41.58;;
36787;SDS011;22738;45.560;9.434;2022-10-17T00:55:49;81.30;;;37.53;;
36787;SDS011;22738;45.560;9.434;2022-10-17T01:02:34;76.82;;;34.97;;
36787;SDS011;22738;45.560;9.434;2022-10-17T01:09:16;90.65;;;38.45;;
36787;SDS011;22738;45.560;9.434;2022-10-17T01:16:08;85.43;;;40.15;;
36787;SDS011;22738;45.560;9.434;2022-10-17T01:29:52;89.20;;;37.85;;
36787;SDS011;22738;45.560;9.434;2022-10-17T01:37:08;84.38;;;39.33;;
36787;SDS011;22738;45.560;9.434;2022-10-17T01:43:58;89.13;;;38.13;;
36787;SDS011;22738;45.560;9.434;2022-10-17T01:51:07;90.03;;;42.13;;
36787;SDS011;22738;45.560;9.434;2022-10-17T01:57:54;72.93;;;35.50;;
36787;SDS011;22738;45.560;9.434;2022-10-17T02:04:41;82.65;;;37.72;;
36787;SDS011;22738;45.560;9.434;2022-10-17T02:11:23;80.53;;;36.42;;
36787;SDS011;22738;45.560;9.434;2022-10-17T02:25:02;83.78;;;38.63;;
36787;SDS011;22738;45.560;9.434;2022-10-17T02:31:55;77.97;;;37.70;;
36787;SDS011;22738;45.560;9.434;2022-10-17T02:38:40;79.00;;;34.97;;
36787;SDS011;22738;45.560;9.434;2022-10-17T02:45:24;80.35;;;37.47;;
36787;SDS011;22738;45.560;9.434;2022-10-17T02:52:14;72.50;;;34.78;;
36787;SDS011;22738;45.560;9.434;2022-10-17T02:59:02;78.93;;;36.30;;
36787;SDS011;22738;45.560;9.434;2022-10-17T03:05:46;91.38;;;38.58;;
36787;SDS011;22738;45.560;9.434;2022-10-17T03:12:27;90.15;;;38.03;;
36787;SDS011;22738;45.560;9.434;2022-10-17T03:19:09;81.57;;;35.03;;
36787;SDS011;22738;45.560;9.434;2022-10-17T03:25:50;76.78;;;35.58;;
36787;SDS011;22738;45.560;9.434;2022-10-17T03:32:32;82.95;;;37.47;;
36787;SDS011;22738;45.560;9.434;2022-10-17T03:39:14;82.57;;;35.80;;
36787;SDS011;22738;45.560;9.434;2022-10-17T03:45:56;84.95;;;37.28;;
36787;SDS011;22738;45.560;9.434;2022-10-17T03:52:39;78.17;;;33.67;;
36787;SDS011;22738;45.560;9.434;2022-10-17T03:59:20;78.00;;;34.25;;
36787;SDS011;22738;45.560;9.434;2022-10-17T04:06:11;75.40;;;36.22;;
36787;SDS011;22738;45.560;9.434;2022-10-17T04:12:54;84.43;;;35.83;;
36787;SDS011;22738;45.560;9.434;2022-10-17T04:19:36;79.38;;;36.30;;
36787;SDS011;22738;45.560;9.434;2022-10-17T04:26:17;82.28;;;36.28;;
36787;SDS011;22738;45.560;9.434;2022-10-17T04:32:58;76.93;;;34.13;;
36787;SDS011;22738;45.560;9.434;2022-10-17T04:39:41;78.47;;;33.90;;
36787;SDS011;22738;45.560;9.434;2022-10-17T04:46:23;72.22;;;32.28;;
36787;SDS011;22738;45.560;9.434;2022-10-17T04:53:04;77.90;;;34.58;;
36787;SDS011;22738;45.560;9.434;2022-10-17T04:59:45;69.30;;;32.35;;
36787;SDS011;22738;45.560;9.434;2022-10-17T05:06:47;71.00;;;33.10;;
36787;SDS011;22738;45.560;9.434;2022-10-17T05:13:50;75.45;;;32.90;;
36787;SDS011;22738;45.560;9.434;2022-10-17T05:20:36;74.22;;;33.17;;
36787;SDS011;22738;45.560;9.434;2022-10-17T05:27:17;72.80;;;33.30;;
36787;SDS011;22738;45.560;9.434;2022-10-17T05:33:59;69.95;;;33.85;;
36787;SDS011;22738;45.560;9.434;2022-10-17T05:47:23;75.97;;;33.80;;
36787;SDS011;22738;45.560;9.434;2022-10-17T05:54:05;72.50;;;33.85;;
36787;SDS011;22738;45.560;9.434;2022-10-17T06:00:47;100.20;;;38.80;;
36787;SDS011;22738;45.560;9.434;2022-10-17T06:07:28;86.05;;;35.60;;
36787;SDS011;22738;45.560;9.434;2022-10-17T06:14:10;80.32;;;34.75;;
36787;SDS011;22738;45.560;9.434;2022-10-17T06:20:53;76.67;;;32.40;;
36787;SDS011;22738;45.560;9.434;2022-10-17T06:27:35;64.47;;;28.80;;
36787;SDS011;22738;45.560;9.434;2022-10-17T06:34:16;67.70;;;31.85;;
36787;SDS011;22738;45.560;9.434;2022-10-17T06:41:06;64.53;;;31.20;;
36787;SDS011;22738;45.560;9.434;2022-10-17T06:47:49;59.35;;;27.45;;
36787;SDS011;22738;45.560;9.434;2022-10-17T06:54:56;55.28;;;26.63;;
36787;SDS011;22738;45.560;9.434;2022-10-17T07:01:54;51.50;;;26.17;;
36787;SDS011;22738;45.560;9.434;2022-10-17T07:08:42;56.42;;;27.70;;
36787;SDS011;22738;45.560;9.434;2022-10-17T07:15:25;45.75;;;25.38;;
36787;SDS011;22738;45.560;9.434;2022-10-17T07:22:06;51.70;;;26.25;;
36787;SDS011;22738;45.560;9.434;2022-10-17T07:28:50;56.28;;;27.23;;
36787;SDS011;22738;45.560;9.434;2022-10-17T07:35:51;40.47;;;20.73;;
36787;SDS011;22738;45.560;9.434;2022-10-17T07:42:35;47.45;;;24.63;;
36787;SDS011;22738;45.560;9.434;2022-10-17T07:49:17;46.22;;;23.58;;
36787;SDS011;22738;45.560;9.434;2022-10-17T07:55:58;41.85;;;21.17;;
36787;SDS011;22738;45.560;9.434;2022-10-17T08:02:39;47.88;;;25.48;;
36787;SDS011;22738;45.560;9.434;2022-10-17T08:09:20;41.15;;;22.70;;
36787;SDS011;22738;45.560;9.434;2022-10-17T08:16:02;42.30;;;21.27;;
36787;SDS011;22738;45.560;9.434;2022-10-17T08:22:50;39.42;;;21.80;;
36787;SDS011;22738;45.560;9.434;2022-10-17T08:29:33;48.25;;;26.67;;
36787;SDS011;22738;45.560;9.434;2022-10-17T08:36:15;48.53;;;26.33;;
36787;SDS011;22738;45.560;9.434;2022-10-17T08:50:37;59.60;;;30.48;;
36787;SDS011;22738;45.560;9.434;2022-10-17T08:57:23;61.60;;;31.33;;
36787;SDS011;22738;45.560;9.434;2022-10-17T09:04:10;69.85;;;33.13;;
36787;SDS011;22738;45.560;9.434;2022-10-17T09:11:04;59.72;;;30.98;;
36787;SDS011;22738;45.560;9.434;2022-10-17T09:25:03;66.78;;;31.73;;
36787;SDS011;22738;45.560;9.434;2022-10-17T09:31:57;62.70;;;31.65;;
36787;SDS011;22738;45.560;9.434;2022-10-17T09:38:52;69.40;;;34.42;;
36787;SDS011;22738;45.560;9.434;2022-10-17T09:45:38;62.80;;;30.15;;
36787;SDS011;22738;45.560;9.434;2022-10-17T09:52:28;71.13;;;32.92;;
36787;SDS011;22738;45.560;9.434;2022-10-17T09:59:14;63.03;;;30.92;;
36787;SDS011;22738;45.560;9.434;2022-10-17T10:06:15;60.30;;;30.13;;
36787;SDS011;22738;45.560;9.434;2022-10-17T10:13:16;64.93;;;32.20;;
36787;SDS011;22738;45.560;9.434;2022-10-17T10:20:00;71.25;;;34.97;;
36787;SDS011;22738;45.560;9.434;2022-10-17T10:26:44;65.97;;;30.90;;
36787;SDS011;22738;45.560;9.434;2022-10-17T10:33:28;76.35;;;36.95;;
36787;SDS011;22738;45.560;9.434;2022-10-17T10:47:13;64.00;;;31.85;;
36787;SDS011;22738;45.560;9.434;2022-10-17T10:54:10;75.43;;;36.65;;
36787;SDS011;22738;45.560;9.434;2022-10-17T11:00:59;59.55;;;29.55;;
36787;SDS011;22738;45.560;9.434;2022-10-17T11:14:42;66.72;;;32.20;;
36787;SDS011;22738;45.560;9.434;2022-10-17T11:21:40;71.38;;;34.28;;
36787;SDS011;22738;45.560;9.434;2022-10-17T11:28:27;74.88;;;33.67;;
36787;SDS011;22738;45.560;9.434;2022-10-17T11:35:18;79.32;;;37.60;;
36787;SDS011;22738;45.560;9.434;2022-10-17T11:42:09;74.32;;;37.30;;
36787;SDS011;22738;45.560;9.434;2022-10-17T11:55:37;83.80;;;40.17;;
36787;SDS011;22738;45.560;9.434;2022-10-17T12:02:41;78.22;;;36.28;;
36787;SDS011;22738;45.560;9.434;2022-10-17T12:16:36;70.45;;;32.92;;
36787;SDS011;22738;45.560;9.434;2022-10-17T12:23:30;67.10;;;31.85;;
36787;SDS011;22738;45.560;9.434;2022-10-17T12:36:53;72.30;;;33.08;;
36787;SDS011;22738;45.560;9.434;2022-10-17T12:43:47;65.03;;;30.50;;
36787;SDS011;22738;45.560;9.434;2022-10-17T12:58:04;70.97;;;32.38;;
36787;SDS011;22738;45.560;9.434;2022-10-17T13:05:26;48.35;;;25.00;;
36787;SDS011;22738;45.560;9.434;2022-10-17T13:12:11;66.82;;;31.27;;
36787;SDS011;22738;45.560;9.434;2022-10-17T13:18:55;60.75;;;29.48;;
36787;SDS011;22738;45.560;9.434;2022-10-17T13:25:37;75.03;;;34.20;;
36787;SDS011;22738;45.560;9.434;2022-10-17T13:32:21;55.38;;;26.40;;
36787;SDS011;22738;45.560;9.434;2022-10-17T13:39:05;64.15;;;29.83;;
36787;SDS011;22738;45.560;9.434;2022-10-17T13:45:53;75.72;;;34.97;;
36787;SDS011;22738;45.560;9.434;2022-10-17T13:52:36;65.85;;;30.45;;
36787;SDS011;22738;45.560;9.434;2022-10-17T13:59:21;79.45;;;35.42;;
36787;SDS011;22738;45.560;9.434;2022-10-17T14:06:11;58.05;;;26.60;;
36787;SDS011;22738;45.560;9.434;2022-10-17T14:12:53;60.22;;;29.20;;
36787;SDS011;22738;45.560;9.434;2022-10-17T14:19:35;54.97;;;27.23;;
36787;SDS011;22738;45.560;9.434;2022-10-17T14:33:10;66.70;;;29.48;;
36787;SDS011;22738;45.560;9.434;2022-10-17T14:40:00;53.90;;;24.75;;
36787;SDS011;22738;45.560;9.434;2022-10-17T14:46:44;55.85;;;26.50;;
36787;SDS011;22738;45.560;9.434;2022-10-17T14:53:27;64.15;;;27.52;;
36787;SDS011;22738;45.560;9.434;2022-10-17T15:00:16;49.27;;;24.90;;
36787;SDS011;22738;45.560;9.434;2022-10-17T15:06:59;48.72;;;19.98;;
36787;SDS011;22738;45.560;9.434;2022-10-17T15:13:40;48.40;;;22.67;;
36787;SDS011;22738;45.560;9.434;2022-10-17T15:20:23;41.08;;;20.90;;
36787;SDS011;22738;45.560;9.434;2022-10-17T15:27:21;37.38;;;18.70;;
36787;SDS011;22738;45.560;9.434;2022-10-17T15:34:03;52.03;;;24.35;;
36787;SDS011;22738;45.560;9.434;2022-10-17T15:40:45;50.83;;;21.73;;
36787;SDS011;22738;45.560;9.434;2022-10-17T15:47:30;48.00;;;21.95;;
36787;SDS011;22738;45.560;9.434;2022-10-17T15:54:14;45.58;;;22.02;;
36787;SDS011;22738;45.560;9.434;2022-10-17T16:00:55;34.20;;;18.33;;
36787;SDS011;22738;45.560;9.434;2022-10-17T16:07:36;37.47;;;18.63;;
36787;SDS011;22738;45.560;9.434;2022-10-17T16:14:17;53.35;;;24.38;;
36787;SDS011;22738;45.560;9.434;2022-10-17T16:20:58;47.35;;;21.95;;
36787;SDS011;22738;45.560;9.434;2022-10-17T16:27:39;38.13;;;19.25;;
36787;SDS011;22738;45.560;9.434;2022-10-17T16:34:21;40.47;;;19.67;;
36787;SDS011;22738;45.560;9.434;2022-10-17T16:41:02;49.42;;;23.42;;
36787;SDS011;22738;45.560;9.434;2022-10-17T16:47:44;60.95;;;27.65;;
36787;SDS011;22738;45.560;9.434;2022-10-17T16:54:25;54.38;;;25.52;;
36787;SDS011;22738;45.560;9.434;2022-10-17T17:01:08;52.60;;;25.35;;
36787;SDS011;22738;45.560;9.434;2022-10-17T17:07:51;55.10;;;25.10;;
36787;SDS011;22738;45.560;9.434;2022-10-17T17:14:32;60.42;;;26.73;;
36787;SDS011;22738;45.560;9.434;2022-10-17T17:21:13;53.20;;;25.52;;
36787;SDS011;22738;45.560;9.434;2022-10-17T17:27:55;63.58;;;29.05;;
36787;SDS011;22738;45.560;9.434;2022-10-17T17:34:36;67.03;;;29.75;;
36787;SDS011;22738;45.560;9.434;2022-10-17T17:41:19;72.60;;;32.65;;
36787;SDS011;22738;45.560;9.434;2022-10-17T17:48:00;76.93;;;33.15;;
36787;SDS011;22738;45.560;9.434;2022-10-17T17:54:41;79.95;;;32.25;;
36787;SDS011;22738;45.560;9.434;2022-10-17T18:01:25;79.60;;;36.17;;
36787;SDS011;22738;45.560;9.434;2022-10-17T18:08:08;78.20;;;36.20;;
36787;SDS011;22738;45.560;9.434;2022-10-17T18:14:49;73.55;;;33.63;;
36787;SDS011;22738;45.560;9.434;2022-10-17T18:21:30;78.40;;;34.17;;
36787;SDS011;22738;45.560;9.434;2022-10-17T18:28:11;91.47;;;37.50;;
36787;SDS011;22738;45.560;9.434;2022-10-17T18:34:52;85.97;;;36.95;;
36787;SDS011;22738;45.560;9.434;2022-10-17T18:41:33;90.13;;;36.90;;
36787;SDS011;22738;45.560;9.434;2022-10-17T18:48:14;72.80;;;32.70;;
36787;SDS011;22738;45.560;9.434;2022-10-17T18:54:55;79.70;;;34.50;;
36787;SDS011;22738;45.560;9.434;2022-10-17T19:01:36;77.38;;;33.75;;
36787;SDS011;22738;45.560;9.434;2022-10-17T19:08:17;64.63;;;30.40;;
36787;SDS011;22738;45.560;9.434;2022-10-17T19:14:58;74.90;;;30.88;;
36787;SDS011;22738;45.560;9.434;2022-10-17T19:21:39;66.05;;;30.50;;
36787;SDS011;22738;45.560;9.434;2022-10-17T19:28:21;70.20;;;29.75;;
36787;SDS011;22738;45.560;9.434;2022-10-17T19:35:03;71.55;;;33.45;;
36787;SDS011;22738;45.560;9.434;2022-10-17T19:41:46;81.33;;;36.37;;
36787;SDS011;22738;45.560;9.434;2022-10-17T19:48:29;103.70;;;42.40;;
36787;SDS011;22738;45.560;9.434;2022-10-17T20:01:52;95.70;;;42.25;;
36787;SDS011;22738;45.560;9.434;2022-10-17T20:08:34;89.55;;;39.20;;
36787;SDS011;22738;45.560;9.434;2022-10-17T20:15:16;102.20;;;42.42;;
36787;SDS011;22738;45.560;9.434;2022-10-17T20:21:57;90.45;;;38.03;;
36787;SDS011;22738;45.560;9.434;2022-10-17T20:28:39;82.65;;;36.92;;
36787;SDS011;22738;45.560;9.434;2022-10-17T20:35:20;88.32;;;40.00;;
36787;SDS011;22738;45.560;9.434;2022-10-17T20:42:02;80.28;;;38.17;;
36787;SDS011;22738;45.560;9.434;2022-10-17T20:48:43;78.40;;;37.72;;
36787;SDS011;22738;45.560;9.434;2022-10-17T20:55:24;85.47;;;38.42;;
36787;SDS011;22738;45.560;9.434;2022-10-17T21:02:05;89.00;;;37.17;;
36787;SDS011;22738;45.560;9.434;2022-10-17T21:08:47;84.20;;;37.90;;
36787;SDS011;22738;45.560;9.434;2022-10-17T21:15:28;83.40;;;38.40;;
36787;SDS011;22738;45.560;9.434;2022-10-17T21:22:10;87.90;;;40.95;;
36787;SDS011;22738;45.560;9.434;2022-10-17T21:28:51;91.93;;;40.38;;
36787;SDS011;22738;45.560;9.434;2022-10-17T21:35:32;84.35;;;39.08;;
36787;SDS011;22738;45.560;9.434;2022-10-17T21:42:13;91.32;;;40.97;;
36787;SDS011;22738;45.560;9.434;2022-10-17T21:48:54;80.88;;;37.55;;
36787;SDS011;22738;45.560;9.434;2022-10-17T21:55:35;82.20;;;35.42;;
36787;SDS011;22738;45.560;9.434;2022-10-17T22:02:17;78.85;;;36.72;;
36787;SDS011;22738;45.560;9.434;2022-10-17T22:08:59;88.20;;;37.55;;
36787;SDS011;22738;45.560;9.434;2022-10-17T22:15:40;76.25;;;37.55;;
36787;SDS011;22738;45.560;9.434;2022-10-17T22:22:21;74.07;;;35.33;;
36787;SDS011;22738;45.560;9.434;2022-10-17T22:29:02;74.00;;;37.13;;
36787;SDS011;22738;45.560;9.434;2022-10-17T22:35:45;78.03;;;35.67;;
36787;SDS011;22738;45.560;9.434;2022-10-17T22:42:27;75.95;;;35.45;;
36787;SDS011;22738;45.560;9.434;2022-10-17T23:02:33;86.13;;;37.92;;
36787;SDS011;22738;45.560;9.434;2022-10-17T23:09:14;75.63;;;33.80;;
36787;SDS011;22738;45.560;9.434;2022-10-17T23:15:55;79.72;;;33.88;;
36787;SDS011;22738;45.560;9.434;2022-10-17T23:22:37;75.68;;;34.15;;
36787;SDS011;22738;45.560;9.434;2022-10-17T23:29:18;69.25;;;32.65;;
36787;SDS011;22738;45.560;9.434;2022-10-17T23:36:02;75.07;;;33.72;;
36787;SDS011;22738;45.560;9.434;2022-10-17T23:42:44;68.60;;;32.70;;
36787;SDS011;22738;45.560;9.434;2022-10-17T23:49:25;66.90;;;31.50;;
36787;SDS011;22738;45.560;9.434;2022-10-17T23:56:08;66.63;;;30.70;;
